sensor_id;sensor_type;location;lat;lon;timestamp;P1;durP1;ratioP1;P2;durP2;ratioP2
19084;SDS011;9675;51.538;6.728;2023-04-22T00:01:21;3.03;;;2.10;;
19084;SDS011;9675;51.538;6.728;2023-04-22T00:03:49;3.00;;;1.67;;
19084;SDS011;9675;51.538;6.728;2023-04-22T00:06:16;4.20;;;1.97;;
19084;SDS011;9675;51.538;6.728;2023-04-22T00:08:44;5.00;;;2.07;;
19084;SDS011;9675;51.538;6.728;2023-04-22T00:11:11;4.27;;;2.10;;
19084;SDS011;9675;51.538;6.728;2023-04-22T00:13:38;4.10;;;2.53;;
19084;SDS011;9675;51.538;6.728;2023-04-22T00:16:06;3.60;;;2.03;;
19084;SDS011;9675;51.538;6.728;2023-04-22T00:18:34;2.97;;;1.40;;
19084;SDS011;9675;51.538;6.728;2023-04-22T00:21:01;2.63;;;1.80;;
19084;SDS011;9675;51.538;6.728;2023-04-22T00:23:28;3.50;;;1.93;;
19084;SDS011;9675;51.538;6.728;2023-04-22T00:25:55;4.03;;;1.90;;
19084;SDS011;9675;51.538;6.728;2023-04-22T00:28:22;3.67;;;2.07;;
19084;SDS011;9675;51.538;6.728;2023-04-22T00:30:49;3.20;;;1.83;;
19084;SDS011;9675;51.538;6.728;2023-04-22T00:33:18;3.23;;;1.90;;
19084;SDS011;9675;51.538;6.728;2023-04-22T00:35:45;3.33;;;2.10;;
19084;SDS011;9675;51.538;6.728;2023-04-22T00:38:12;5.23;;;2.23;;
19084;SDS011;9675;51.538;6.728;2023-04-22T00:40:39;2.57;;;1.47;;
19084;SDS011;9675;51.538;6.728;2023-04-22T00:43:07;2.63;;;1.57;;
19084;SDS011;9675;51.538;6.728;2023-04-22T00:45:35;6.80;;;2.27;;
19084;SDS011;9675;51.538;6.728;2023-04-22T00:48:02;2.03;;;1.70;;
19084;SDS011;9675;51.538;6.728;2023-04-22T00:50:31;3.67;;;1.87;;
19084;SDS011;9675;51.538;6.728;2023-04-22T00:52:58;3.27;;;2.07;;
19084;SDS011;9675;51.538;6.728;2023-04-22T00:55:26;2.90;;;1.87;;
19084;SDS011;9675;51.538;6.728;2023-04-22T00:57:53;5.93;;;1.87;;
19084;SDS011;9675;51.538;6.728;2023-04-22T01:00:23;3.23;;;1.83;;
19084;SDS011;9675;51.538;6.728;2023-04-22T01:02:51;3.63;;;1.80;;
19084;SDS011;9675;51.538;6.728;2023-04-22T01:05:19;5.80;;;2.27;;
19084;SDS011;9675;51.538;6.728;2023-04-22T01:07:48;4.60;;;2.57;;
19084;SDS011;9675;51.538;6.728;2023-04-22T01:10:16;5.20;;;2.13;;
19084;SDS011;9675;51.538;6.728;2023-04-22T01:12:44;7.40;;;2.63;;
19084;SDS011;9675;51.538;6.728;2023-04-22T01:15:11;5.73;;;2.80;;
19084;SDS011;9675;51.538;6.728;2023-04-22T01:17:38;5.50;;;2.30;;
19084;SDS011;9675;51.538;6.728;2023-04-22T01:20:06;4.47;;;2.73;;
19084;SDS011;9675;51.538;6.728;2023-04-22T01:22:35;4.37;;;2.40;;
19084;SDS011;9675;51.538;6.728;2023-04-22T01:25:09;4.93;;;2.50;;
19084;SDS011;9675;51.538;6.728;2023-04-22T01:27:36;4.87;;;2.20;;
19084;SDS011;9675;51.538;6.728;2023-04-22T01:30:05;4.60;;;2.60;;
19084;SDS011;9675;51.538;6.728;2023-04-22T01:32:34;4.77;;;2.43;;
19084;SDS011;9675;51.538;6.728;2023-04-22T01:35:01;3.43;;;1.97;;
19084;SDS011;9675;51.538;6.728;2023-04-22T01:37:29;7.10;;;3.10;;
19084;SDS011;9675;51.538;6.728;2023-04-22T01:39:56;5.57;;;2.33;;
19084;SDS011;9675;51.538;6.728;2023-04-22T01:42:25;3.33;;;2.00;;
19084;SDS011;9675;51.538;6.728;2023-04-22T01:44:53;4.43;;;2.10;;
19084;SDS011;9675;51.538;6.728;2023-04-22T01:47:20;4.10;;;2.33;;
19084;SDS011;9675;51.538;6.728;2023-04-22T01:49:47;5.47;;;2.20;;
19084;SDS011;9675;51.538;6.728;2023-04-22T01:52:14;3.97;;;2.53;;
19084;SDS011;9675;51.538;6.728;2023-04-22T01:54:42;5.47;;;2.60;;
19084;SDS011;9675;51.538;6.728;2023-04-22T01:57:10;4.93;;;2.40;;
19084;SDS011;9675;51.538;6.728;2023-04-22T01:59:44;4.40;;;2.47;;
19084;SDS011;9675;51.538;6.728;2023-04-22T02:02:11;7.30;;;2.23;;
19084;SDS011;9675;51.538;6.728;2023-04-22T02:04:38;6.70;;;4.07;;
19084;SDS011;9675;51.538;6.728;2023-04-22T02:07:05;10.33;;;4.17;;
19084;SDS011;9675;51.538;6.728;2023-04-22T02:09:32;6.40;;;4.10;;
19084;SDS011;9675;51.538;6.728;2023-04-22T02:11:59;8.70;;;4.13;;
19084;SDS011;9675;51.538;6.728;2023-04-22T02:14:26;8.73;;;4.40;;
19084;SDS011;9675;51.538;6.728;2023-04-22T02:16:55;6.20;;;4.00;;
19084;SDS011;9675;51.538;6.728;2023-04-22T02:19:22;9.77;;;4.60;;
19084;SDS011;9675;51.538;6.728;2023-04-22T02:21:49;7.37;;;3.63;;
19084;SDS011;9675;51.538;6.728;2023-04-22T02:24:16;7.97;;;3.67;;
19084;SDS011;9675;51.538;6.728;2023-04-22T02:26:43;10.03;;;4.53;;
19084;SDS011;9675;51.538;6.728;2023-04-22T02:29:11;6.70;;;3.60;;
19084;SDS011;9675;51.538;6.728;2023-04-22T02:31:38;7.80;;;4.07;;
19084;SDS011;9675;51.538;6.728;2023-04-22T02:34:07;8.23;;;4.70;;
19084;SDS011;9675;51.538;6.728;2023-04-22T02:36:34;12.67;;;4.90;;
19084;SDS011;9675;51.538;6.728;2023-04-22T02:39:01;7.43;;;4.20;;
19084;SDS011;9675;51.538;6.728;2023-04-22T02:41:30;7.07;;;4.20;;
19084;SDS011;9675;51.538;6.728;2023-04-22T02:43:57;8.57;;;4.70;;
19084;SDS011;9675;51.538;6.728;2023-04-22T02:46:24;11.10;;;4.67;;
19084;SDS011;9675;51.538;6.728;2023-04-22T02:48:51;7.43;;;4.27;;
19084;SDS011;9675;51.538;6.728;2023-04-22T02:51:19;10.27;;;4.73;;
19084;SDS011;9675;51.538;6.728;2023-04-22T02:53:46;8.83;;;4.20;;
19084;SDS011;9675;51.538;6.728;2023-04-22T02:56:13;9.80;;;4.90;;
19084;SDS011;9675;51.538;6.728;2023-04-22T02:58:40;9.43;;;4.90;;
19084;SDS011;9675;51.538;6.728;2023-04-22T03:01:07;7.73;;;4.20;;
19084;SDS011;9675;51.538;6.728;2023-04-22T03:03:35;8.93;;;3.90;;
19084;SDS011;9675;51.538;6.728;2023-04-22T03:06:02;8.57;;;3.97;;
19084;SDS011;9675;51.538;6.728;2023-04-22T03:08:31;7.67;;;4.57;;
19084;SDS011;9675;51.538;6.728;2023-04-22T03:10:58;9.33;;;4.27;;
19084;SDS011;9675;51.538;6.728;2023-04-22T03:13:25;7.87;;;4.00;;
19084;SDS011;9675;51.538;6.728;2023-04-22T03:15:52;8.13;;;4.60;;
19084;SDS011;9675;51.538;6.728;2023-04-22T03:18:19;9.30;;;5.00;;
19084;SDS011;9675;51.538;6.728;2023-04-22T03:20:46;9.53;;;4.30;;
19084;SDS011;9675;51.538;6.728;2023-04-22T03:23:14;7.90;;;4.40;;
19084;SDS011;9675;51.538;6.728;2023-04-22T03:25:42;10.97;;;4.90;;
19084;SDS011;9675;51.538;6.728;2023-04-22T03:28:09;7.07;;;4.50;;
19084;SDS011;9675;51.538;6.728;2023-04-22T03:30:36;7.63;;;4.03;;
19084;SDS011;9675;51.538;6.728;2023-04-22T03:33:04;7.37;;;4.17;;
19084;SDS011;9675;51.538;6.728;2023-04-22T03:35:31;9.83;;;4.07;;
19084;SDS011;9675;51.538;6.728;2023-04-22T03:37:58;10.33;;;4.20;;
19084;SDS011;9675;51.538;6.728;2023-04-22T03:40:25;8.83;;;4.20;;
19084;SDS011;9675;51.538;6.728;2023-04-22T03:42:53;7.60;;;3.97;;
19084;SDS011;9675;51.538;6.728;2023-04-22T03:45:21;7.57;;;4.27;;
19084;SDS011;9675;51.538;6.728;2023-04-22T03:47:48;8.60;;;3.97;;
19084;SDS011;9675;51.538;6.728;2023-04-22T03:50:15;6.47;;;3.97;;
19084;SDS011;9675;51.538;6.728;2023-04-22T03:52:42;9.07;;;4.27;;
19084;SDS011;9675;51.538;6.728;2023-04-22T03:55:09;8.23;;;4.40;;
19084;SDS011;9675;51.538;6.728;2023-04-22T03:57:36;7.27;;;3.70;;
19084;SDS011;9675;51.538;6.728;2023-04-22T04:00:05;8.50;;;4.40;;
19084;SDS011;9675;51.538;6.728;2023-04-22T04:02:33;6.80;;;4.33;;
19084;SDS011;9675;51.538;6.728;2023-04-22T04:05:00;7.47;;;3.97;;
19084;SDS011;9675;51.538;6.728;2023-04-22T04:07:28;9.13;;;4.60;;
19084;SDS011;9675;51.538;6.728;2023-04-22T04:09:55;10.97;;;4.37;;
19084;SDS011;9675;51.538;6.728;2023-04-22T04:12:22;8.97;;;3.77;;
19084;SDS011;9675;51.538;6.728;2023-04-22T04:14:49;9.07;;;4.57;;
19084;SDS011;9675;51.538;6.728;2023-04-22T04:17:17;8.20;;;4.10;;
19084;SDS011;9675;51.538;6.728;2023-04-22T04:19:44;8.30;;;3.90;;
19084;SDS011;9675;51.538;6.728;2023-04-22T04:22:11;7.20;;;3.67;;
19084;SDS011;9675;51.538;6.728;2023-04-22T04:24:39;6.30;;;3.43;;
19084;SDS011;9675;51.538;6.728;2023-04-22T04:27:06;9.70;;;3.67;;
19084;SDS011;9675;51.538;6.728;2023-04-22T04:29:33;6.07;;;4.00;;
19084;SDS011;9675;51.538;6.728;2023-04-22T04:32:01;8.07;;;3.57;;
19084;SDS011;9675;51.538;6.728;2023-04-22T04:34:30;6.23;;;3.57;;
19084;SDS011;9675;51.538;6.728;2023-04-22T04:36:58;7.97;;;3.27;;
19084;SDS011;9675;51.538;6.728;2023-04-22T04:39:25;5.90;;;3.37;;
19084;SDS011;9675;51.538;6.728;2023-04-22T04:41:53;5.97;;;3.00;;
19084;SDS011;9675;51.538;6.728;2023-04-22T04:44:22;5.80;;;3.33;;
19084;SDS011;9675;51.538;6.728;2023-04-22T04:46:50;4.87;;;2.80;;
19084;SDS011;9675;51.538;6.728;2023-04-22T04:49:18;5.67;;;3.30;;
19084;SDS011;9675;51.538;6.728;2023-04-22T04:51:47;5.03;;;2.80;;
19084;SDS011;9675;51.538;6.728;2023-04-22T04:54:14;7.67;;;3.40;;
19084;SDS011;9675;51.538;6.728;2023-04-22T04:56:42;5.43;;;2.80;;
19084;SDS011;9675;51.538;6.728;2023-04-22T04:59:09;6.47;;;3.10;;
19084;SDS011;9675;51.538;6.728;2023-04-22T05:01:37;6.53;;;3.37;;
19084;SDS011;9675;51.538;6.728;2023-04-22T05:04:04;11.13;;;4.37;;
19084;SDS011;9675;51.538;6.728;2023-04-22T05:06:31;6.07;;;3.37;;
19084;SDS011;9675;51.538;6.728;2023-04-22T05:08:59;6.53;;;3.60;;
19084;SDS011;9675;51.538;6.728;2023-04-22T05:11:26;7.90;;;3.07;;
19084;SDS011;9675;51.538;6.728;2023-04-22T05:13:55;9.63;;;3.67;;
19084;SDS011;9675;51.538;6.728;2023-04-22T05:16:22;7.30;;;3.80;;
19084;SDS011;9675;51.538;6.728;2023-04-22T05:18:49;7.83;;;3.77;;
19084;SDS011;9675;51.538;6.728;2023-04-22T05:21:16;6.03;;;3.37;;
19084;SDS011;9675;51.538;6.728;2023-04-22T05:23:44;5.83;;;2.70;;
19084;SDS011;9675;51.538;6.728;2023-04-22T05:26:12;8.17;;;5.00;;
19084;SDS011;9675;51.538;6.728;2023-04-22T05:28:41;11.90;;;7.00;;
19084;SDS011;9675;51.538;6.728;2023-04-22T05:31:09;10.87;;;5.03;;
19084;SDS011;9675;51.538;6.728;2023-04-22T05:33:36;8.47;;;3.80;;
19084;SDS011;9675;51.538;6.728;2023-04-22T05:36:07;5.20;;;3.10;;
19084;SDS011;9675;51.538;6.728;2023-04-22T05:38:34;7.97;;;4.43;;
19084;SDS011;9675;51.538;6.728;2023-04-22T05:41:02;7.63;;;4.27;;
19084;SDS011;9675;51.538;6.728;2023-04-22T05:43:30;5.63;;;3.17;;
19084;SDS011;9675;51.538;6.728;2023-04-22T05:45:57;7.80;;;4.03;;
19084;SDS011;9675;51.538;6.728;2023-04-22T05:48:24;11.33;;;6.37;;
19084;SDS011;9675;51.538;6.728;2023-04-22T05:50:51;4.47;;;3.40;;
19084;SDS011;9675;51.538;6.728;2023-04-22T05:53:19;9.97;;;4.87;;
19084;SDS011;9675;51.538;6.728;2023-04-22T05:55:46;8.73;;;4.20;;
19084;SDS011;9675;51.538;6.728;2023-04-22T05:58:13;6.80;;;3.57;;
19084;SDS011;9675;51.538;6.728;2023-04-22T06:00:41;6.63;;;4.27;;
19084;SDS011;9675;51.538;6.728;2023-04-22T06:03:08;9.57;;;5.23;;
19084;SDS011;9675;51.538;6.728;2023-04-22T06:05:35;13.17;;;4.37;;
19084;SDS011;9675;51.538;6.728;2023-04-22T06:08:02;9.87;;;4.60;;
19084;SDS011;9675;51.538;6.728;2023-04-22T06:10:29;10.40;;;4.27;;
19084;SDS011;9675;51.538;6.728;2023-04-22T06:12:56;6.03;;;3.50;;
19084;SDS011;9675;51.538;6.728;2023-04-22T06:15:24;7.27;;;3.53;;
19084;SDS011;9675;51.538;6.728;2023-04-22T06:17:52;7.00;;;3.20;;
19084;SDS011;9675;51.538;6.728;2023-04-22T06:20:20;6.67;;;3.37;;
19084;SDS011;9675;51.538;6.728;2023-04-22T06:22:47;7.83;;;3.80;;
19084;SDS011;9675;51.538;6.728;2023-04-22T06:25:14;10.33;;;4.50;;
19084;SDS011;9675;51.538;6.728;2023-04-22T06:27:44;7.60;;;4.57;;
19084;SDS011;9675;51.538;6.728;2023-04-22T06:30:11;10.40;;;4.97;;
19084;SDS011;9675;51.538;6.728;2023-04-22T06:32:38;8.23;;;4.40;;
19084;SDS011;9675;51.538;6.728;2023-04-22T06:35:07;7.80;;;3.80;;
19084;SDS011;9675;51.538;6.728;2023-04-22T06:37:35;10.03;;;5.00;;
19084;SDS011;9675;51.538;6.728;2023-04-22T06:40:02;6.60;;;3.77;;
19084;SDS011;9675;51.538;6.728;2023-04-22T06:42:31;6.73;;;3.20;;
19084;SDS011;9675;51.538;6.728;2023-04-22T06:44:58;6.47;;;3.90;;
19084;SDS011;9675;51.538;6.728;2023-04-22T06:47:25;11.27;;;4.43;;
19084;SDS011;9675;51.538;6.728;2023-04-22T06:49:58;7.20;;;3.57;;
19084;SDS011;9675;51.538;6.728;2023-04-22T06:52:32;6.10;;;3.87;;
19084;SDS011;9675;51.538;6.728;2023-04-22T06:55:04;8.40;;;4.63;;
19084;SDS011;9675;51.538;6.728;2023-04-22T06:57:32;8.53;;;4.13;;
19084;SDS011;9675;51.538;6.728;2023-04-22T07:00:01;9.70;;;4.87;;
19084;SDS011;9675;51.538;6.728;2023-04-22T07:02:30;9.43;;;3.90;;
19084;SDS011;9675;51.538;6.728;2023-04-22T07:04:59;6.87;;;4.53;;
19084;SDS011;9675;51.538;6.728;2023-04-22T07:07:26;8.73;;;3.77;;
19084;SDS011;9675;51.538;6.728;2023-04-22T07:09:56;5.57;;;3.57;;
19084;SDS011;9675;51.538;6.728;2023-04-22T07:12:31;5.73;;;3.73;;
19084;SDS011;9675;51.538;6.728;2023-04-22T07:15:07;7.10;;;2.90;;
19084;SDS011;9675;51.538;6.728;2023-04-22T07:17:38;4.17;;;2.40;;
19084;SDS011;9675;51.538;6.728;2023-04-22T07:20:05;4.73;;;2.50;;
19084;SDS011;9675;51.538;6.728;2023-04-22T07:22:34;5.50;;;2.83;;
19084;SDS011;9675;51.538;6.728;2023-04-22T07:25:13;6.87;;;2.97;;
19084;SDS011;9675;51.538;6.728;2023-04-22T07:27:40;7.03;;;2.27;;
19084;SDS011;9675;51.538;6.728;2023-04-22T07:30:14;4.33;;;1.97;;
19084;SDS011;9675;51.538;6.728;2023-04-22T07:32:47;2.53;;;1.33;;
19084;SDS011;9675;51.538;6.728;2023-04-22T07:35:14;4.03;;;2.30;;
19084;SDS011;9675;51.538;6.728;2023-04-22T07:37:42;3.67;;;2.10;;
19084;SDS011;9675;51.538;6.728;2023-04-22T07:40:09;3.07;;;1.53;;
19084;SDS011;9675;51.538;6.728;2023-04-22T07:42:39;3.47;;;1.40;;
19084;SDS011;9675;51.538;6.728;2023-04-22T07:45:06;2.40;;;1.10;;
19084;SDS011;9675;51.538;6.728;2023-04-22T07:47:34;3.53;;;1.97;;
19084;SDS011;9675;51.538;6.728;2023-04-22T07:50:10;1.57;;;0.93;;
19084;SDS011;9675;51.538;6.728;2023-04-22T07:52:37;2.40;;;1.67;;
19084;SDS011;9675;51.538;6.728;2023-04-22T07:55:04;6.73;;;1.37;;
19084;SDS011;9675;51.538;6.728;2023-04-22T07:57:33;1.47;;;1.07;;
19084;SDS011;9675;51.538;6.728;2023-04-22T08:00:05;2.60;;;1.20;;
19084;SDS011;9675;51.538;6.728;2023-04-22T08:02:33;4.00;;;1.40;;
19084;SDS011;9675;51.538;6.728;2023-04-22T08:05:01;3.20;;;1.33;;
19084;SDS011;9675;51.538;6.728;2023-04-22T08:07:28;1.70;;;1.30;;
19084;SDS011;9675;51.538;6.728;2023-04-22T08:09:55;3.10;;;1.50;;
19084;SDS011;9675;51.538;6.728;2023-04-22T08:12:22;2.53;;;1.23;;
19084;SDS011;9675;51.538;6.728;2023-04-22T08:14:49;2.77;;;1.33;;
19084;SDS011;9675;51.538;6.728;2023-04-22T08:17:18;6.03;;;2.00;;
19084;SDS011;9675;51.538;6.728;2023-04-22T08:19:46;3.00;;;1.73;;
19084;SDS011;9675;51.538;6.728;2023-04-22T08:22:13;3.40;;;1.83;;
19084;SDS011;9675;51.538;6.728;2023-04-22T08:24:42;4.67;;;1.40;;
19084;SDS011;9675;51.538;6.728;2023-04-22T08:27:09;4.53;;;1.63;;
19084;SDS011;9675;51.538;6.728;2023-04-22T08:29:36;3.50;;;1.30;;
19084;SDS011;9675;51.538;6.728;2023-04-22T08:32:04;5.43;;;2.37;;
19084;SDS011;9675;51.538;6.728;2023-04-22T08:34:32;4.00;;;1.60;;
19084;SDS011;9675;51.538;6.728;2023-04-22T08:36:59;2.03;;;1.20;;
19084;SDS011;9675;51.538;6.728;2023-04-22T08:39:27;2.87;;;1.60;;
19084;SDS011;9675;51.538;6.728;2023-04-22T08:41:54;5.47;;;1.80;;
19084;SDS011;9675;51.538;6.728;2023-04-22T08:44:23;1.43;;;1.20;;
19084;SDS011;9675;51.538;6.728;2023-04-22T08:46:51;2.23;;;1.50;;
19084;SDS011;9675;51.538;6.728;2023-04-22T08:49:20;3.60;;;1.60;;
19084;SDS011;9675;51.538;6.728;2023-04-22T08:51:51;6.20;;;1.33;;
19084;SDS011;9675;51.538;6.728;2023-04-22T08:54:20;2.80;;;1.40;;
19084;SDS011;9675;51.538;6.728;2023-04-22T08:56:49;2.40;;;1.60;;
19084;SDS011;9675;51.538;6.728;2023-04-22T08:59:16;5.23;;;1.87;;
19084;SDS011;9675;51.538;6.728;2023-04-22T09:01:46;4.27;;;1.83;;
19084;SDS011;9675;51.538;6.728;2023-04-22T09:04:18;3.83;;;1.37;;
19084;SDS011;9675;51.538;6.728;2023-04-22T09:06:45;4.17;;;1.77;;
19084;SDS011;9675;51.538;6.728;2023-04-22T09:09:14;3.07;;;1.07;;
19084;SDS011;9675;51.538;6.728;2023-04-22T09:11:41;2.77;;;1.40;;
19084;SDS011;9675;51.538;6.728;2023-04-22T09:14:08;1.70;;;0.97;;
19084;SDS011;9675;51.538;6.728;2023-04-22T09:16:39;5.30;;;1.67;;
19084;SDS011;9675;51.538;6.728;2023-04-22T09:19:10;2.67;;;1.40;;
19084;SDS011;9675;51.538;6.728;2023-04-22T09:21:38;2.90;;;1.50;;
19084;SDS011;9675;51.538;6.728;2023-04-22T09:24:10;3.30;;;1.47;;
19084;SDS011;9675;51.538;6.728;2023-04-22T09:26:40;2.87;;;1.83;;
19084;SDS011;9675;51.538;6.728;2023-04-22T09:29:12;2.13;;;1.23;;
19084;SDS011;9675;51.538;6.728;2023-04-22T09:31:40;5.97;;;1.80;;
19084;SDS011;9675;51.538;6.728;2023-04-22T09:34:12;2.67;;;1.50;;
19084;SDS011;9675;51.538;6.728;2023-04-22T09:36:39;3.37;;;1.50;;
19084;SDS011;9675;51.538;6.728;2023-04-22T09:39:10;7.63;;;1.80;;
19084;SDS011;9675;51.538;6.728;2023-04-22T09:41:38;2.50;;;1.30;;
19084;SDS011;9675;51.538;6.728;2023-04-22T09:44:08;2.93;;;1.70;;
19084;SDS011;9675;51.538;6.728;2023-04-22T09:46:36;2.53;;;1.40;;
19084;SDS011;9675;51.538;6.728;2023-04-22T09:49:07;3.10;;;1.60;;
19084;SDS011;9675;51.538;6.728;2023-04-22T09:51:35;3.40;;;1.67;;
19084;SDS011;9675;51.538;6.728;2023-04-22T09:54:10;2.30;;;1.57;;
19084;SDS011;9675;51.538;6.728;2023-04-22T09:56:50;3.60;;;1.73;;
19084;SDS011;9675;51.538;6.728;2023-04-22T09:59:21;3.90;;;1.50;;
19084;SDS011;9675;51.538;6.728;2023-04-22T10:01:51;1.80;;;1.40;;
19084;SDS011;9675;51.538;6.728;2023-04-22T10:04:21;4.20;;;2.10;;
19084;SDS011;9675;51.538;6.728;2023-04-22T10:06:50;2.83;;;1.50;;
19084;SDS011;9675;51.538;6.728;2023-04-22T10:09:18;3.17;;;1.40;;
19084;SDS011;9675;51.538;6.728;2023-04-22T10:11:48;3.07;;;1.70;;
19084;SDS011;9675;51.538;6.728;2023-04-22T10:14:19;3.63;;;1.50;;
19084;SDS011;9675;51.538;6.728;2023-04-22T10:16:47;6.53;;;2.47;;
19084;SDS011;9675;51.538;6.728;2023-04-22T10:19:20;2.43;;;1.30;;
19084;SDS011;9675;51.538;6.728;2023-04-22T10:21:51;7.40;;;1.73;;
19084;SDS011;9675;51.538;6.728;2023-04-22T10:24:24;3.27;;;1.90;;
19084;SDS011;9675;51.538;6.728;2023-04-22T10:26:55;6.07;;;1.77;;
19084;SDS011;9675;51.538;6.728;2023-04-22T10:29:34;2.70;;;1.80;;
19084;SDS011;9675;51.538;6.728;2023-04-22T10:32:22;2.87;;;1.77;;
19084;SDS011;9675;51.538;6.728;2023-04-22T10:35:05;2.10;;;1.50;;
19084;SDS011;9675;51.538;6.728;2023-04-22T10:37:43;4.80;;;1.93;;
19084;SDS011;9675;51.538;6.728;2023-04-22T10:40:22;2.70;;;1.60;;
19084;SDS011;9675;51.538;6.728;2023-04-22T10:42:51;5.13;;;1.97;;
19084;SDS011;9675;51.538;6.728;2023-04-22T10:45:23;2.07;;;1.30;;
19084;SDS011;9675;51.538;6.728;2023-04-22T10:47:50;2.03;;;1.40;;
19084;SDS011;9675;51.538;6.728;2023-04-22T10:50:21;2.80;;;1.60;;
19084;SDS011;9675;51.538;6.728;2023-04-22T10:52:53;4.83;;;1.90;;
19084;SDS011;9675;51.538;6.728;2023-04-22T10:55:22;3.13;;;1.80;;
19084;SDS011;9675;51.538;6.728;2023-04-22T10:57:52;2.27;;;1.77;;
19084;SDS011;9675;51.538;6.728;2023-04-22T11:00:26;1.87;;;1.33;;
19084;SDS011;9675;51.538;6.728;2023-04-22T11:03:07;6.80;;;3.00;;
19084;SDS011;9675;51.538;6.728;2023-04-22T11:05:41;4.73;;;1.87;;
19084;SDS011;9675;51.538;6.728;2023-04-22T11:08:14;8.20;;;3.17;;
19084;SDS011;9675;51.538;6.728;2023-04-22T11:10:49;1.30;;;1.10;;
19084;SDS011;9675;51.538;6.728;2023-04-22T11:13:19;5.07;;;2.77;;
19084;SDS011;9675;51.538;6.728;2023-04-22T11:15:47;3.57;;;2.17;;
19084;SDS011;9675;51.538;6.728;2023-04-22T11:18:18;2.50;;;1.87;;
19084;SDS011;9675;51.538;6.728;2023-04-22T11:20:48;4.93;;;1.93;;
19084;SDS011;9675;51.538;6.728;2023-04-22T11:23:21;5.97;;;2.53;;
19084;SDS011;9675;51.538;6.728;2023-04-22T11:25:53;5.83;;;2.17;;
19084;SDS011;9675;51.538;6.728;2023-04-22T11:28:23;7.33;;;3.40;;
19084;SDS011;9675;51.538;6.728;2023-04-22T11:30:50;5.90;;;2.27;;
19084;SDS011;9675;51.538;6.728;2023-04-22T11:33:18;8.73;;;2.33;;
19084;SDS011;9675;51.538;6.728;2023-04-22T11:35:47;3.00;;;1.60;;
19084;SDS011;9675;51.538;6.728;2023-04-22T11:38:16;9.50;;;4.43;;
19084;SDS011;9675;51.538;6.728;2023-04-22T11:40:43;3.30;;;1.90;;
19084;SDS011;9675;51.538;6.728;2023-04-22T11:43:10;13.77;;;6.27;;
19084;SDS011;9675;51.538;6.728;2023-04-22T11:45:39;4.70;;;2.37;;
19084;SDS011;9675;51.538;6.728;2023-04-22T11:48:07;3.07;;;1.50;;
19084;SDS011;9675;51.538;6.728;2023-04-22T11:50:37;4.60;;;2.00;;
19084;SDS011;9675;51.538;6.728;2023-04-22T11:53:12;2.57;;;1.50;;
19084;SDS011;9675;51.538;6.728;2023-04-22T11:55:42;5.00;;;3.53;;
19084;SDS011;9675;51.538;6.728;2023-04-22T11:58:12;5.03;;;2.40;;
19084;SDS011;9675;51.538;6.728;2023-04-22T12:00:43;4.50;;;1.70;;
19084;SDS011;9675;51.538;6.728;2023-04-22T12:03:14;6.73;;;2.83;;
19084;SDS011;9675;51.538;6.728;2023-04-22T12:05:44;6.60;;;2.37;;
19084;SDS011;9675;51.538;6.728;2023-04-22T12:08:15;8.67;;;4.03;;
19084;SDS011;9675;51.538;6.728;2023-04-22T12:10:44;3.60;;;2.10;;
19084;SDS011;9675;51.538;6.728;2023-04-22T12:13:18;7.30;;;2.20;;
19084;SDS011;9675;51.538;6.728;2023-04-22T12:15:51;4.00;;;1.73;;
19084;SDS011;9675;51.538;6.728;2023-04-22T12:18:27;5.03;;;2.00;;
19084;SDS011;9675;51.538;6.728;2023-04-22T12:20:58;3.50;;;1.80;;
19084;SDS011;9675;51.538;6.728;2023-04-22T12:23:27;4.23;;;1.97;;
19084;SDS011;9675;51.538;6.728;2023-04-22T12:25:56;3.27;;;1.77;;
19084;SDS011;9675;51.538;6.728;2023-04-22T12:28:23;1.43;;;1.33;;
19084;SDS011;9675;51.538;6.728;2023-04-22T12:30:52;7.10;;;2.10;;
19084;SDS011;9675;51.538;6.728;2023-04-22T12:33:19;2.27;;;1.70;;
19084;SDS011;9675;51.538;6.728;2023-04-22T12:35:46;4.80;;;2.00;;
19084;SDS011;9675;51.538;6.728;2023-04-22T12:38:16;4.50;;;1.70;;
19084;SDS011;9675;51.538;6.728;2023-04-22T12:40:43;3.43;;;1.77;;
19084;SDS011;9675;51.538;6.728;2023-04-22T12:43:10;3.23;;;1.43;;
19084;SDS011;9675;51.538;6.728;2023-04-22T12:45:37;3.07;;;1.30;;
19084;SDS011;9675;51.538;6.728;2023-04-22T12:48:07;4.47;;;1.93;;
19084;SDS011;9675;51.538;6.728;2023-04-22T12:50:34;3.00;;;1.57;;
19084;SDS011;9675;51.538;6.728;2023-04-22T12:53:02;3.57;;;1.83;;
19084;SDS011;9675;51.538;6.728;2023-04-22T12:55:29;3.20;;;1.50;;
19084;SDS011;9675;51.538;6.728;2023-04-22T12:57:56;2.33;;;1.60;;
19084;SDS011;9675;51.538;6.728;2023-04-22T13:00:24;4.53;;;1.50;;
19084;SDS011;9675;51.538;6.728;2023-04-22T13:02:51;5.83;;;1.70;;
19084;SDS011;9675;51.538;6.728;2023-04-22T13:05:19;3.77;;;1.47;;
19084;SDS011;9675;51.538;6.728;2023-04-22T13:07:46;2.07;;;1.33;;
19084;SDS011;9675;51.538;6.728;2023-04-22T13:10:14;3.33;;;1.40;;
19084;SDS011;9675;51.538;6.728;2023-04-22T13:12:46;2.40;;;1.47;;
19084;SDS011;9675;51.538;6.728;2023-04-22T13:15:14;4.03;;;1.60;;
19084;SDS011;9675;51.538;6.728;2023-04-22T13:17:43;2.87;;;1.73;;
19084;SDS011;9675;51.538;6.728;2023-04-22T13:20:12;4.17;;;1.50;;
19084;SDS011;9675;51.538;6.728;2023-04-22T13:22:41;3.13;;;1.60;;
19084;SDS011;9675;51.538;6.728;2023-04-22T13:25:08;2.67;;;1.30;;
19084;SDS011;9675;51.538;6.728;2023-04-22T13:27:36;3.07;;;1.40;;
19084;SDS011;9675;51.538;6.728;2023-04-22T13:30:03;2.10;;;1.17;;
19084;SDS011;9675;51.538;6.728;2023-04-22T13:32:34;3.00;;;1.40;;
19084;SDS011;9675;51.538;6.728;2023-04-22T13:35:01;5.57;;;1.93;;
19084;SDS011;9675;51.538;6.728;2023-04-22T13:37:28;3.80;;;1.43;;
19084;SDS011;9675;51.538;6.728;2023-04-22T13:39:56;4.10;;;1.33;;
19084;SDS011;9675;51.538;6.728;2023-04-22T13:42:23;2.33;;;1.37;;
19084;SDS011;9675;51.538;6.728;2023-04-22T13:44:50;1.30;;;1.13;;
19084;SDS011;9675;51.538;6.728;2023-04-22T13:47:17;6.23;;;1.90;;
19084;SDS011;9675;51.538;6.728;2023-04-22T13:49:44;7.53;;;1.80;;
19084;SDS011;9675;51.538;6.728;2023-04-22T13:52:11;3.67;;;1.80;;
19084;SDS011;9675;51.538;6.728;2023-04-22T13:54:40;4.90;;;1.93;;
19084;SDS011;9675;51.538;6.728;2023-04-22T13:57:08;6.77;;;2.43;;
19084;SDS011;9675;51.538;6.728;2023-04-22T13:59:36;5.60;;;2.37;;
19084;SDS011;9675;51.538;6.728;2023-04-22T14:02:03;4.30;;;2.57;;
19084;SDS011;9675;51.538;6.728;2023-04-22T14:04:31;5.97;;;2.93;;
19084;SDS011;9675;51.538;6.728;2023-04-22T14:07:01;6.03;;;2.53;;
19084;SDS011;9675;51.538;6.728;2023-04-22T14:09:29;3.27;;;1.60;;
19084;SDS011;9675;51.538;6.728;2023-04-22T14:11:56;3.80;;;1.40;;
19084;SDS011;9675;51.538;6.728;2023-04-22T14:14:25;4.60;;;1.40;;
19084;SDS011;9675;51.538;6.728;2023-04-22T14:16:52;4.03;;;1.73;;
19084;SDS011;9675;51.538;6.728;2023-04-22T14:19:20;3.43;;;2.13;;
19084;SDS011;9675;51.538;6.728;2023-04-22T14:21:47;35.37;;;15.33;;
19084;SDS011;9675;51.538;6.728;2023-04-22T14:24:14;4.07;;;3.00;;
19084;SDS011;9675;51.538;6.728;2023-04-22T14:26:43;2.40;;;2.00;;
19084;SDS011;9675;51.538;6.728;2023-04-22T14:29:10;1.97;;;1.40;;
19084;SDS011;9675;51.538;6.728;2023-04-22T14:31:40;3.33;;;1.87;;
19084;SDS011;9675;51.538;6.728;2023-04-22T14:34:07;3.83;;;1.60;;
19084;SDS011;9675;51.538;6.728;2023-04-22T14:36:34;3.80;;;2.20;;
19084;SDS011;9675;51.538;6.728;2023-04-22T14:39:01;3.73;;;2.00;;
19084;SDS011;9675;51.538;6.728;2023-04-22T14:41:28;11.43;;;5.33;;
19084;SDS011;9675;51.538;6.728;2023-04-22T14:43:55;7.23;;;4.00;;
19084;SDS011;9675;51.538;6.728;2023-04-22T14:46:22;8.87;;;4.03;;
19084;SDS011;9675;51.538;6.728;2023-04-22T14:48:51;24.40;;;7.73;;
19084;SDS011;9675;51.538;6.728;2023-04-22T14:51:18;3.47;;;2.10;;
19084;SDS011;9675;51.538;6.728;2023-04-22T14:53:45;9.90;;;4.87;;
19084;SDS011;9675;51.538;6.728;2023-04-22T14:56:12;10.03;;;6.53;;
19084;SDS011;9675;51.538;6.728;2023-04-22T14:58:39;8.33;;;4.80;;
19084;SDS011;9675;51.538;6.728;2023-04-22T15:01:06;11.47;;;6.30;;
19084;SDS011;9675;51.538;6.728;2023-04-22T15:03:33;23.03;;;11.50;;
19084;SDS011;9675;51.538;6.728;2023-04-22T15:06:03;6.87;;;4.13;;
19084;SDS011;9675;51.538;6.728;2023-04-22T15:08:31;12.30;;;7.53;;